CZUM/ZUM METAR and TAF weather

Enter ICAO airport designator
Station Type Date Time Source
CZUM METAR 2018/10/21 03:00 UTC NOAA

CZUM 210300Z AUTO 12007KT 9SM -SN BKN015 BKN020 OVC029 M01/M02 A2914 RMK SLP894


Station Type Date Time Source
CZUM Decoded METAR 2018/10/21 03:00 UTC NOAA

Churchill Falls, Nfld., Canada (CZUM) 53-33N 064-06W 440M
Oct 20, 2018 - 11:00 PM EDT / 2018.10.21 0300 UTC
Wind: from the ESE (120 degrees) at 8 MPH (7 KT):0
Visibility: 9 mile(s):0
Sky conditions: overcast
Weather: light snow
Temperature: 30 F (-1 C)
Windchill: 23 F (-5 C):1
Dew Point: 28 F (-2 C)
Relative Humidity: 92%
Pressure (altimeter): 29.14 in. Hg (986 hPa)
ob: CZUM 210300Z AUTO 12007KT 9SM -SN BKN015 BKN020 OVC029 M01/M02 A2914 RMK SLP894
cycle: 3

Station Type Date Time Source
CZUM TAF 2018/10/21 02:48 UTC NOAA

TAF
AMD TAF
AMD CZUM 210144Z 2102/2114 10008KT 11/2SM -SN BKN007 OVC020
TEMPO 2102/2104 6SM -SN SCT008 BKN020
FM210400 10006KT 1SM -SNRA BR OVC005
TEMPO 2104/2107 3SM -SN OVC010
FM210700 14007KT 6SM -RA BR OVC010
TEMPO 2107/2109 21/2SM -RASN OVC006
FM210900 14010G20KT P6SM -SHRA OVC020
FM211200 24012G22KT P6SM -SHSN OVC025
RMK FCST BASED ON AUTO OBS. NXT FCST BY 210800Z


Example: see airport list